createdAt,value
2018-05-03T00:00:17.869Z,12.2
2018-05-03T00:01:07.647Z,12.2
2018-05-03T00:01:57.904Z,12.2
2018-05-03T00:02:48.070Z,12.1
2018-05-03T00:03:38.112Z,12.1
2018-05-03T00:04:28.198Z,12.1
2018-05-03T00:05:18.267Z,12.1
2018-05-03T00:06:08.316Z,12
2018-05-03T00:06:58.398Z,12
2018-05-03T00:07:48.440Z,11.9
2018-05-03T00:08:38.571Z,11.9
2018-05-03T00:09:28.569Z,11.9
2018-05-03T00:10:18.636Z,11.9
2018-05-03T00:11:08.717Z,11.9
2018-05-03T00:11:58.504Z,11.8
2018-05-03T00:12:48.557Z,11.8
2018-05-03T00:13:38.913Z,11.8
2018-05-03T00:14:28.965Z,11.8
2018-05-03T00:15:19.017Z,11.8
2018-05-03T00:16:09.080Z,11.7
2018-05-03T00:16:59.153Z,11.7
2018-05-03T00:17:49.210Z,11.7
2018-05-03T00:18:39.269Z,11.6
2018-05-03T00:19:29.360Z,11.6
2018-05-03T00:20:19.421Z,11.6
2018-05-03T00:21:09.465Z,11.6
2018-05-03T00:21:59.614Z,11.5
2018-05-03T00:22:49.597Z,11.5
2018-05-03T00:23:39.659Z,11.5
2018-05-03T00:24:29.740Z,11.4
2018-05-03T00:25:19.788Z,11.4
2018-05-03T00:26:09.855Z,11.4
2018-05-03T00:26:59.919Z,11.4
2018-05-03T00:27:49.717Z,11.4
2018-05-03T00:28:40.042Z,11.4
2018-05-03T00:29:30.129Z,11.3
2018-05-03T00:30:19.904Z,11.3
2018-05-03T00:31:09.975Z,11.3
2018-05-03T00:32:00.314Z,11.3
2018-05-03T00:32:50.388Z,11.3
2018-05-03T00:33:40.439Z,11.3
2018-05-03T00:34:30.238Z,11.2
2018-05-03T00:35:20.596Z,11.2
2018-05-03T00:36:10.707Z,11.2
2018-05-03T00:37:00.423Z,11.1
2018-05-03T00:37:50.772Z,11.1
2018-05-03T00:38:40.542Z,11.1
2018-05-03T00:39:30.886Z,11.1
2018-05-03T00:40:20.959Z,11.1
2018-05-03T00:41:11.033Z,11.1
2018-05-03T00:42:01.099Z,11.1
2018-05-03T00:42:51.143Z,11
2018-05-03T00:43:40.931Z,11
2018-05-03T00:44:31.288Z,11
2018-05-03T00:45:21.059Z,11
2018-05-03T00:46:11.406Z,10.9
2018-05-03T00:47:01.467Z,10.9
2018-05-03T00:47:51.529Z,10.9
2018-05-03T00:48:41.592Z,10.9
2018-05-03T00:49:31.385Z,10.9
2018-05-03T00:50:21.729Z,10.9
2018-05-03T00:51:11.520Z,10.9
2018-05-03T00:52:01.880Z,10.8
2018-05-03T00:52:51.922Z,10.8
2018-05-03T00:53:41.986Z,10.8
2018-05-03T00:54:32.056Z,10.8
2018-05-03T00:55:22.118Z,10.8
2018-05-03T00:56:12.246Z,10.8
2018-05-03T00:57:02.272Z,10.8
2018-05-03T00:57:52.305Z,10.7
2018-05-03T00:58:42.391Z,10.7
2018-05-03T00:59:32.437Z,10.7
2018-05-03T01:00:22.512Z,10.7
2018-05-03T01:01:12.588Z,10.6
2018-05-03T01:02:02.659Z,10.6
2018-05-03T01:02:52.137Z,10.6
2018-05-03T01:03:42.771Z,10.6
2018-05-03T01:04:32.840Z,10.6
2018-05-03T01:05:22.968Z,10.6
2018-05-03T01:06:12.404Z,10.6
2018-05-03T01:07:02.749Z,10.5
2018-05-03T01:07:52.519Z,10.5
2018-05-03T01:08:43.145Z,10.5
2018-05-03T01:09:33.212Z,10.5
2018-05-03T01:10:23.294Z,10.5
2018-05-03T01:11:13.351Z,10.4
2018-05-03T01:12:03.430Z,10.4
2018-05-03T01:12:53.509Z,10.4
2018-05-03T01:13:43.531Z,10.4
2018-05-03T01:14:33.603Z,10.4
2018-05-03T01:15:23.657Z,10.4
2018-05-03T01:16:13.462Z,10.4
2018-05-03T01:17:03.808Z,10.4
2018-05-03T01:17:53.572Z,10.3
2018-05-03T01:18:43.914Z,10.3
2018-05-03T01:19:33.706Z,10.3
2018-05-03T01:20:23.764Z,10.3
2018-05-03T01:21:14.112Z,10.3
2018-05-03T01:22:03.898Z,10.3
2018-05-03T01:22:54.246Z,10.3
2018-05-03T01:23:44.037Z,10.3
2018-05-03T01:24:34.098Z,10.2
2018-05-03T01:25:24.169Z,10.2
2018-05-03T01:26:14.531Z,10.2
2018-05-03T01:27:04.557Z,10.2
2018-05-03T01:27:54.651Z,10.2
2018-05-03T01:28:44.708Z,10.1
2018-05-03T01:29:34.751Z,10.1
2018-05-03T01:30:24.822Z,10.1
2018-05-03T01:31:14.884Z,10.1
2018-05-03T01:32:04.953Z,10.1
2018-05-03T01:32:55.123Z,10.1
2018-05-03T01:33:44.801Z,10
2018-05-03T01:34:35.142Z,10
2018-05-03T01:35:25.203Z,10
2018-05-03T01:36:15.290Z,10
2018-05-03T01:37:05.337Z,9.9
2018-05-03T01:37:55.413Z,9.9
2018-05-03T01:38:45.469Z,9.9
2018-05-03T01:39:35.536Z,9.9
2018-05-03T01:40:25.604Z,9.9
2018-05-03T01:41:15.366Z,9.9
2018-05-03T01:42:05.721Z,9.9
2018-05-03T01:42:55.522Z,9.9
2018-05-03T01:43:45.872Z,9.8
2018-05-03T01:44:35.917Z,9.8
2018-05-03T01:45:25.983Z,9.8
2018-05-03T01:46:16.050Z,9.8
2018-05-03T01:47:05.843Z,9.8
2018-05-03T01:47:56.189Z,9.8
2018-05-03T01:48:45.960Z,9.8
2018-05-03T01:49:36.309Z,9.7
2018-05-03T01:50:26.366Z,9.7
2018-05-03T01:51:16.172Z,9.7
2018-05-03T01:52:06.499Z,9.7
2018-05-03T01:52:56.289Z,9.7
2018-05-03T01:53:46.633Z,9.7
2018-05-03T01:54:36.693Z,9.6
2018-05-03T01:55:26.774Z,9.6
2018-05-03T01:56:16.837Z,9.6
2018-05-03T01:57:06.615Z,9.6
2018-05-03T01:57:56.950Z,9.6
2018-05-03T01:58:47.019Z,9.6
2018-05-03T01:59:36.598Z,9.6
2018-05-03T02:00:27.148Z,9.5
2018-05-03T02:01:16.985Z,9.5
2018-05-03T02:02:07.009Z,9.5
2018-05-03T02:02:57.355Z,9.5
2018-05-03T02:03:47.425Z,9.4
2018-05-03T02:04:37.484Z,9.5
2018-05-03T02:05:27.246Z,9.4
2018-05-03T02:06:17.598Z,9.4
2018-05-03T02:07:07.654Z,9.4
2018-05-03T02:07:57.432Z,9.4
2018-05-03T02:08:47.790Z,9.4
2018-05-03T02:09:37.572Z,9.4
2018-05-03T02:10:27.914Z,9.4
2018-05-03T02:11:17.692Z,9.4
2018-05-03T02:12:08.052Z,9.3
2018-05-03T02:12:58.107Z,9.4
2018-05-03T02:13:48.197Z,9.4
2018-05-03T02:14:38.256Z,9.3
2018-05-03T02:15:28.304Z,9.3
2018-05-03T02:16:18.371Z,9.3
2018-05-03T02:17:08.173Z,9.3
2018-05-03T02:17:58.222Z,9.3
2018-05-03T02:18:48.275Z,9.3
2018-05-03T02:19:38.622Z,9.3
2018-05-03T02:20:28.681Z,9.3
2018-05-03T02:21:18.760Z,9.3
2018-05-03T02:22:08.817Z,9.3
2018-05-03T02:22:58.879Z,9.3
2018-05-03T02:23:48.936Z,9.3
2018-05-03T02:24:38.998Z,9.2
2018-05-03T02:25:29.070Z,9.2
2018-05-03T02:26:19.143Z,9.2
2018-05-03T02:27:08.907Z,9.2
2018-05-03T02:27:59.011Z,9.2
2018-05-03T02:28:49.328Z,9.2
2018-05-03T02:29:39.397Z,9.1
2018-05-03T02:30:29.478Z,9.1
2018-05-03T02:31:19.533Z,9.1
2018-05-03T02:32:09.586Z,9.1
2018-05-03T02:32:59.370Z,9.1
2018-05-03T02:33:49.735Z,9.1
2018-05-03T02:34:39.501Z,9.1
2018-05-03T02:35:30.110Z,9.1
2018-05-03T02:36:19.928Z,9
2018-05-03T02:37:09.682Z,9.1
2018-05-03T02:38:00.047Z,9
2018-05-03T02:38:50.115Z,9
2018-05-03T02:39:40.172Z,9
2018-05-03T02:40:30.243Z,9
2018-05-03T02:41:20.023Z,9
2018-05-03T02:42:10.376Z,8.9
2018-05-03T02:43:00.161Z,8.9
2018-05-03T02:43:50.205Z,8.9
2018-05-03T02:44:40.274Z,8.9
2018-05-03T02:45:30.635Z,8.9
2018-05-03T02:46:20.121Z,8.9
2018-05-03T02:47:10.768Z,8.9
2018-05-03T02:48:00.908Z,8.9
2018-05-03T02:48:50.870Z,8.9
2018-05-03T02:49:40.943Z,8.8
2018-05-03T02:50:31.009Z,8.9
2018-05-03T02:51:21.069Z,8.8
2018-05-03T02:52:11.135Z,8.8
2018-05-03T02:53:01.209Z,8.8
2018-05-03T02:53:51.259Z,8.8
2018-05-03T02:54:41.338Z,8.8
2018-05-03T02:55:31.116Z,8.8
2018-05-03T02:56:21.170Z,8.8
2018-05-03T02:57:10.964Z,8.8
2018-05-03T02:58:01.011Z,8.8
2018-05-03T02:58:51.658Z,8.7
2018-05-03T02:59:41.730Z,8.7
2018-05-03T03:00:31.775Z,8.8
2018-05-03T03:01:21.852Z,8.7
2018-05-03T03:02:11.738Z,8.7
2018-05-03T03:03:01.971Z,8.7
2018-05-03T03:03:52.071Z,8.7
2018-05-03T03:04:41.815Z,8.7
2018-05-03T03:05:31.884Z,8.6
2018-05-03T03:06:22.248Z,8.6
2018-05-03T03:07:12.305Z,8.6
2018-05-03T03:08:02.353Z,8.6
2018-05-03T03:08:52.153Z,8.6
2018-05-03T03:09:42.822Z,8.6
2018-05-03T03:10:31.975Z,8.6
2018-05-03T03:11:22.619Z,8.6
2018-05-03T03:12:12.119Z,8.6
2018-05-03T03:13:02.742Z,8.6
2018-05-03T03:13:52.797Z,8.6
2018-05-03T03:14:42.875Z,8.6
2018-05-03T03:15:32.952Z,8.6
2018-05-03T03:16:22.986Z,8.6
2018-05-03T03:17:13.052Z,8.6
2018-05-03T03:18:02.847Z,8.5
2018-05-03T03:18:52.910Z,8.5
2018-05-03T03:19:42.983Z,8.5
2018-05-03T03:20:32.753Z,8.5
2018-05-03T03:21:23.101Z,8.4
2018-05-03T03:22:13.180Z,8.4
2018-05-03T03:23:02.945Z,8.4
2018-05-03T03:23:53.586Z,8.4
2018-05-03T03:24:43.641Z,8.4
2018-05-03T03:25:33.483Z,8.4
2018-05-03T03:26:23.505Z,8.4
2018-05-03T03:27:13.359Z,8.4
2018-05-03T03:28:03.904Z,8.4
2018-05-03T03:28:53.687Z,8.4
2018-05-03T03:29:44.021Z,8.4
2018-05-03T03:30:33.821Z,8.4
2018-05-03T03:31:23.683Z,8.4
2018-05-03T03:32:13.927Z,8.4
2018-05-03T03:33:04.285Z,8.4
2018-05-03T03:33:54.353Z,8.4
2018-05-03T03:34:44.420Z,8.3
2018-05-03T03:35:34.484Z,8.3
2018-05-03T03:36:24.261Z,8.3
2018-05-03T03:37:14.604Z,8.3
2018-05-03T03:38:04.369Z,8.3
2018-05-03T03:38:54.720Z,8.3
2018-05-03T03:39:44.520Z,8.3
2018-05-03T03:40:34.860Z,8.3
2018-05-03T03:41:24.921Z,8.3
2018-05-03T03:42:14.713Z,8.3
2018-05-03T03:43:05.053Z,8.3
2018-05-03T03:43:55.106Z,8.3
2018-05-03T03:44:45.170Z,8.3
2018-05-03T03:45:35.262Z,8.3
2018-05-03T03:46:25.300Z,8.3
2018-05-03T03:47:15.369Z,8.3
2018-05-03T03:48:05.154Z,8.3
2018-05-03T03:48:55.492Z,8.3
2018-05-03T03:49:45.551Z,8.3
2018-05-03T03:50:35.355Z,8.3
2018-05-03T03:51:25.690Z,8.3
2018-05-03T03:52:15.193Z,8.3
2018-05-03T03:53:05.252Z,8.3
2018-05-03T03:53:55.607Z,8.3
2018-05-03T03:54:45.966Z,8.3
2018-05-03T03:55:35.997Z,8.3
2018-05-03T03:56:25.534Z,8.3
2018-05-03T03:57:16.131Z,8.3
2018-05-03T03:58:06.192Z,8.3
2018-05-03T03:58:56.265Z,8.3
2018-05-03T03:59:46.345Z,8.3
2018-05-03T04:00:36.390Z,8.4
2018-05-03T04:01:26.473Z,8.3
2018-05-03T04:02:16.633Z,8.4
2018-05-03T04:03:06.597Z,8.4
2018-05-03T04:03:56.644Z,8.4
2018-05-03T04:04:46.730Z,8.4
2018-05-03T04:05:36.788Z,8.4
2018-05-03T04:06:26.836Z,8.4
2018-05-03T04:07:16.358Z,8.4
2018-05-03T04:08:06.975Z,8.4
2018-05-03T04:08:57.054Z,8.4
2018-05-03T04:09:46.829Z,8.4
2018-05-03T04:10:36.891Z,8.5
2018-05-03T04:11:27.273Z,8.5
2018-05-03T04:12:17.304Z,8.5
2018-05-03T04:13:07.362Z,8.5
2018-05-03T04:13:57.449Z,8.6
2018-05-03T04:14:47.484Z,8.6
2018-05-03T04:15:37.560Z,8.6
2018-05-03T04:16:27.625Z,8.6
2018-05-03T04:17:17.388Z,8.6
2018-05-03T04:18:07.750Z,8.6
2018-05-03T04:18:57.802Z,8.6
2018-05-03T04:19:47.885Z,8.7
2018-05-03T04:20:37.928Z,8.7
2018-05-03T04:21:28.058Z,8.8
2018-05-03T04:22:18.635Z,8.8
2018-05-03T04:23:07.847Z,8.8
2018-05-03T04:23:57.920Z,8.8
2018-05-03T04:24:48.246Z,8.8
2018-05-03T04:25:38.319Z,8.9
2018-05-03T04:26:28.395Z,8.9
2018-05-03T04:27:17.884Z,8.9
2018-05-03T04:28:08.508Z,8.9
2018-05-03T04:28:58.594Z,8.9
2018-05-03T04:29:48.356Z,9
2018-05-03T04:30:38.710Z,9
2018-05-03T04:31:28.789Z,9.1
2018-05-03T04:32:18.838Z,9.1
2018-05-03T04:33:08.889Z,9.1
2018-05-03T04:33:58.967Z,9.2
2018-05-03T04:34:48.753Z,9.2
2018-05-03T04:35:39.089Z,9.3
2018-05-03T04:36:29.155Z,9.3
2018-05-03T04:37:19.221Z,9.3
2018-05-03T04:38:09.022Z,9.4
2018-05-03T04:38:59.346Z,9.4
2018-05-03T04:39:49.427Z,9.4
2018-05-03T04:40:39.469Z,9.5
2018-05-03T04:41:29.529Z,9.6
2018-05-03T04:42:19.329Z,9.6
2018-05-03T04:43:09.673Z,9.6
2018-05-03T04:43:59.715Z,9.7
2018-05-03T04:44:49.522Z,9.8
2018-05-03T04:45:39.851Z,9.8
2018-05-03T04:46:29.945Z,9.8
2018-05-03T04:47:19.989Z,9.9
2018-05-03T04:48:09.773Z,9.9
2018-05-03T04:48:59.539Z,10
2018-05-03T04:49:49.903Z,10.1
2018-05-03T04:50:40.244Z,10.2
2018-05-03T04:51:30.304Z,10.3
2018-05-03T04:52:19.806Z,10.3
2018-05-03T04:53:10.148Z,10.4
2018-05-03T04:54:00.504Z,10.5
2018-05-03T04:54:50.559Z,10.6
2018-05-03T04:55:40.331Z,10.7
2018-05-03T04:56:30.401Z,10.8
2018-05-03T04:57:20.866Z,10.9
2018-05-03T04:58:10.815Z,11
2018-05-03T04:59:00.880Z,11.1
2018-05-03T04:59:50.655Z,11.2
2018-05-03T05:00:41.003Z,11.3
2018-05-03T05:01:31.084Z,11.4
2018-05-03T05:02:21.145Z,11.5
2018-05-03T05:03:11.197Z,11.6
2018-05-03T05:04:01.260Z,11.8
2018-05-03T05:04:51.441Z,11.8
2018-05-03T05:05:41.400Z,11.9
2018-05-03T05:06:31.467Z,12.1
2018-05-03T05:07:21.549Z,12.3
2018-05-03T05:08:11.581Z,12.4
2018-05-03T05:09:01.440Z,12.5
2018-05-03T05:09:51.728Z,12.6
2018-05-03T05:10:41.797Z,12.8
2018-05-03T05:11:31.838Z,12.9
2018-05-03T05:12:21.634Z,13.1
2018-05-03T05:13:11.699Z,13.3
2018-05-03T05:14:01.772Z,13.4
2018-05-03T05:14:51.829Z,13.6
2018-05-03T05:15:42.222Z,13.8
2018-05-03T05:16:32.242Z,13.9
2018-05-03T05:17:22.289Z,14.1
2018-05-03T05:18:12.077Z,14.3
2018-05-03T05:19:02.441Z,14.5
2018-05-03T05:19:52.487Z,14.6
2018-05-03T05:20:42.546Z,14.8
2018-05-03T05:21:32.629Z,15.1
2018-05-03T05:22:22.676Z,15.3
2018-05-03T05:23:12.769Z,15.4
2018-05-03T05:24:02.813Z,15.7
2018-05-03T05:24:52.930Z,15.9
2018-05-03T05:25:42.933Z,16.1
2018-05-03T05:26:32.722Z,16.3
2018-05-03T05:27:23.076Z,16.6
2018-05-03T05:28:13.224Z,16.8
2018-05-03T05:29:53.258Z,17.3
2018-05-03T05:30:43.519Z,17.5
2018-05-03T05:31:33.390Z,17.8
2018-05-03T05:32:23.443Z,18
2018-05-03T05:33:13.536Z,18.3
2018-05-03T05:34:03.310Z,18.6
2018-05-03T05:34:53.660Z,18.8
2018-05-03T05:35:43.725Z,19.1
2018-05-03T05:36:33.778Z,15.4
2018-05-03T05:37:23.848Z,19.9
2018-05-03T05:38:13.911Z,22.7
2018-05-03T05:39:04.561Z,23.2
2018-05-03T05:39:54.045Z,23.2
2018-05-03T05:40:43.551Z,23.1
2018-05-03T05:41:34.170Z,34.6
2018-05-03T05:42:23.950Z,36
2018-05-03T05:43:14.296Z,36.4
2018-05-03T05:44:04.356Z,36.4
2018-05-03T05:44:54.145Z,36.1
2018-05-03T05:45:44.498Z,35.7
2018-05-03T05:46:34.569Z,35.4
2018-05-03T05:47:24.618Z,35.2
2018-05-03T05:48:14.726Z,35.1
2018-05-03T05:49:04.754Z,34.9
2018-05-03T05:49:54.831Z,37.5
2018-05-03T05:50:44.878Z,38.4
2018-05-03T05:51:34.948Z,37.8
2018-05-03T05:52:24.731Z,37.8
2018-05-03T05:53:15.186Z,37.6
2018-05-03T05:54:05.180Z,40.1
2018-05-03T05:54:55.209Z,40.5
2018-05-03T05:55:45.270Z,43.3
2018-05-03T05:56:35.151Z,43.8
2018-05-03T05:57:25.405Z,44.1
2018-05-03T05:58:15.483Z,44.3
2018-05-03T05:59:05.550Z,44.4
2018-05-03T05:59:55.333Z,44.6
2018-05-03T06:00:45.669Z,44.9
2018-05-03T06:01:35.750Z,45.1
2018-05-03T06:02:25.807Z,45.3
2018-05-03T06:03:15.871Z,45.4
2018-05-03T06:04:05.930Z,45.6
2018-05-03T06:04:55.725Z,45.8
2018-05-03T06:05:45.791Z,45.9
2018-05-03T06:06:36.140Z,46.1
2018-05-03T06:07:26.185Z,46.2
2018-05-03T06:08:16.241Z,46.3
2018-05-03T06:09:06.324Z,46.4
2018-05-03T06:09:56.469Z,46.6
2018-05-03T06:10:46.444Z,46.8
2018-05-03T06:11:36.242Z,46.9
2018-05-03T06:12:26.653Z,47
2018-05-03T06:13:16.660Z,47.1
2018-05-03T06:14:06.711Z,47.3
2018-05-03T06:14:56.501Z,47.4
2018-05-03T06:15:46.838Z,47.6
2018-05-03T06:16:36.913Z,47.7
2018-05-03T06:17:26.969Z,47.8
2018-05-03T06:18:16.754Z,47.9
2018-05-03T06:19:07.110Z,48.1
2018-05-03T06:19:57.177Z,48.2
2018-05-03T06:20:47.237Z,48.3
2018-05-03T06:21:37.320Z,48.4
2018-05-03T06:22:27.082Z,48.5
2018-05-03T06:23:17.157Z,48.6
2018-05-03T06:24:07.495Z,48.7
2018-05-03T06:24:57.554Z,48.8
2018-05-03T06:25:47.639Z,48.9
2018-05-03T06:26:37.748Z,49.1
2018-05-03T06:27:27.760Z,49.2
2018-05-03T06:28:17.850Z,49.3
2018-05-03T06:29:07.899Z,49.4
2018-05-03T06:29:57.683Z,49.5
2018-05-03T06:30:48.035Z,49.6
2018-05-03T06:31:38.081Z,49.8
2018-05-03T06:32:27.869Z,49.9
2018-05-03T06:33:17.932Z,50
2018-05-03T06:34:08.277Z,50.1
2018-05-03T06:34:57.789Z,50.3
2018-05-03T06:35:48.131Z,50.4
2018-05-03T06:36:38.465Z,50.5
2018-05-03T06:37:28.549Z,50.6
2018-05-03T06:38:18.621Z,50.8
2018-05-03T06:39:08.668Z,50.9
2018-05-03T06:39:58.748Z,50.9
2018-05-03T06:40:48.831Z,50.8
2018-05-03T06:41:38.866Z,50.8
2018-05-03T06:42:28.934Z,50.6
2018-05-03T06:43:19.033Z,50.6
2018-05-03T06:44:09.075Z,50.7
2018-05-03T06:44:59.124Z,50.8
2018-05-03T06:45:49.202Z,50.9
2018-05-03T06:46:38.980Z,51
2018-05-03T06:47:29.040Z,51.1
2018-05-03T06:48:19.406Z,51.3
2018-05-03T06:49:09.484Z,51.5
2018-05-03T06:49:59.530Z,51.7
2018-05-03T06:50:49.298Z,51.8
2018-05-03T06:53:19.497Z,51.9
2018-05-03T06:54:09.849Z,51.8
2018-05-03T06:54:59.646Z,51.7
2018-05-03T06:55:50.001Z,51.6
2018-05-03T06:56:39.495Z,51.5
2018-05-03T06:57:30.122Z,51.4
2018-05-03T06:58:20.181Z,51.4
2018-05-03T06:59:10.247Z,51.4
2018-05-03T07:00:00.325Z,51.4
2018-05-03T07:00:50.376Z,51.4
2018-05-03T07:01:40.450Z,51.6
2018-05-03T07:02:30.222Z,51.8
2018-05-03T07:03:20.571Z,51.9
2018-05-03T07:04:10.943Z,52.1
2018-05-03T07:05:00.429Z,52.2
2018-05-03T07:05:50.768Z,52.3
2018-05-03T07:06:40.577Z,52.3
2018-05-03T07:07:30.915Z,52.4
2018-05-03T07:08:20.981Z,52.6
2018-05-03T07:09:11.039Z,52.7
2018-05-03T07:10:00.960Z,52.8
2018-05-03T07:10:51.167Z,52.9
2018-05-03T07:11:41.237Z,52.9
2018-05-03T07:12:31.293Z,52.9
2018-05-03T07:13:21.356Z,52.9
2018-05-03T07:14:11.424Z,52.9
2018-05-03T07:15:01.504Z,52.9
2018-05-03T07:15:51.561Z,52.9
2018-05-03T07:16:41.700Z,52.9
2018-05-03T07:17:31.403Z,52.9
2018-05-03T07:18:21.781Z,53
2018-05-03T07:19:11.819Z,53.1
2018-05-03T07:20:01.336Z,53.2
2018-05-03T07:20:51.678Z,53.3
2018-05-03T07:21:41.726Z,53.4
2018-05-03T07:22:32.099Z,53.6
2018-05-03T07:23:22.151Z,53.7
2018-05-03T07:24:12.223Z,53.8
2018-05-03T07:25:02.015Z,53.9
2018-05-03T07:25:52.351Z,54
2018-05-03T07:26:42.514Z,54.1
2018-05-03T07:27:32.513Z,54.1
2018-05-03T07:28:22.569Z,54.2
2018-05-03T07:29:12.354Z,54.3
2018-05-03T07:30:02.701Z,54.4
2018-05-03T07:30:52.748Z,54.4
2018-05-03T07:31:42.802Z,54.5
2018-05-03T07:32:32.872Z,54.6
2018-05-03T07:33:22.949Z,54.6
2018-05-03T07:34:13.006Z,54.6
2018-05-03T07:35:03.185Z,54.6
2018-05-03T07:35:53.207Z,54.6
2018-05-03T07:36:43.203Z,54.6
2018-05-03T07:37:33.268Z,54.7
2018-05-03T07:38:23.320Z,54.7
2018-05-03T07:39:13.144Z,54.8
2018-05-03T07:40:03.705Z,54.8
2018-05-03T07:40:53.851Z,54.9
2018-05-03T07:41:43.602Z,55
2018-05-03T07:42:33.384Z,55
2018-05-03T07:43:23.723Z,55.1
2018-05-03T07:44:13.545Z,55.2
2018-05-03T07:45:03.863Z,55.3
2018-05-03T07:45:53.983Z,55.3
2018-05-03T07:46:44.015Z,55.4
2018-05-03T07:47:33.790Z,55.4
2018-05-03T07:48:23.648Z,55.5
2018-05-03T07:49:13.913Z,55.5
2018-05-03T07:50:04.375Z,55.6
2018-05-03T07:50:53.556Z,55.6
2018-05-03T07:51:44.107Z,55.7
2018-05-03T07:52:34.450Z,55.8
2018-05-03T07:53:24.246Z,55.9
2018-05-03T07:54:14.577Z,55.9
2018-05-03T07:55:04.663Z,56
2018-05-03T07:55:54.719Z,56.2
2018-05-03T07:56:45.089Z,56.4
2018-05-03T07:57:34.854Z,56.6
2018-05-03T07:58:24.632Z,56.8
2018-05-03T07:59:14.691Z,56.9
2018-05-03T08:00:05.063Z,57.1
2018-05-03T08:00:54.842Z,57.3
2018-05-03T08:01:45.178Z,57.5
2018-05-03T08:03:25.297Z,57.9
2018-05-03T08:04:15.093Z,58.2
2018-05-03T08:05:05.142Z,58.3
2018-05-03T08:06:45.559Z,58.8
2018-05-03T08:07:35.625Z,59.1
2018-05-03T08:08:25.705Z,59.3
2018-05-03T08:09:15.484Z,59.4
2018-05-03T08:10:05.829Z,59.7
2018-05-03T08:10:56.062Z,59.8
2018-05-03T08:11:45.392Z,60.1
2018-05-03T08:12:36.230Z,60.3
2018-05-03T08:13:26.102Z,60.4
2018-05-03T08:14:16.186Z,60.6
2018-05-03T08:15:06.215Z,60.8
2018-05-03T08:15:56.304Z,61
2018-05-03T08:16:46.353Z,61.2
2018-05-03T08:17:36.409Z,61.4
2018-05-03T08:18:26.495Z,61.6
2018-05-03T08:19:16.563Z,61.8
2018-05-03T08:20:06.623Z,61.9
2018-05-03T08:20:56.674Z,62.2
2018-05-03T08:21:46.745Z,62.4
2018-05-03T08:22:36.526Z,62.6
2018-05-03T08:23:26.594Z,62.7
2018-05-03T08:24:16.953Z,62.9
2018-05-03T08:25:07.030Z,63.1
2018-05-03T08:25:56.792Z,63.2
2018-05-03T08:26:46.901Z,63.3
2018-05-03T08:27:37.222Z,63.4
2018-05-03T08:28:27.375Z,63.6
2018-05-03T08:29:17.364Z,63.7
2018-05-03T08:30:07.405Z,63.8
2018-05-03T08:30:57.485Z,63.9
2018-05-03T08:31:47.644Z,64.1
2018-05-03T08:32:37.621Z,64.3
2018-05-03T08:33:27.667Z,64.5
2018-05-03T08:34:17.733Z,64.7
2018-05-03T08:35:07.796Z,64.8
2018-05-03T08:35:57.875Z,65
2018-05-03T08:36:47.941Z,65.2
2018-05-03T08:37:38.015Z,65.4
2018-05-03T08:38:28.070Z,65.5
2018-05-03T08:39:18.214Z,65.7
2018-05-03T08:40:08.225Z,65.9
2018-05-03T08:40:58.001Z,66
2018-05-03T08:41:48.342Z,66.2
2018-05-03T08:42:38.399Z,66.3
2018-05-03T08:43:28.469Z,66.4
2018-05-03T08:44:18.543Z,66.6
2018-05-03T08:45:08.591Z,66.8
2018-05-03T08:45:58.731Z,66.9
2018-05-03T08:46:48.727Z,67.1
2018-05-03T08:47:38.797Z,67.2
2018-05-03T08:48:28.881Z,67.3
2018-05-03T08:49:18.937Z,67.4
2018-05-03T08:50:08.717Z,67.6
2018-05-03T08:50:58.774Z,67.8
2018-05-03T08:51:48.563Z,67.9
2018-05-03T08:52:39.304Z,68.1
2018-05-03T08:53:28.974Z,68.1
2018-05-03T08:54:19.325Z,68.3
2018-05-03T08:55:09.388Z,68.4
2018-05-03T08:55:59.171Z,68.4
2018-05-03T08:56:49.526Z,68.6
2018-05-03T08:57:39.597Z,68.6
2018-05-03T08:58:29.656Z,68.7
2018-05-03T08:59:19.723Z,68.8
2018-05-03T09:00:09.783Z,68.9
2018-05-03T09:00:59.855Z,68.9
2018-05-03T09:01:50.110Z,69
2018-05-03T09:02:40.010Z,69.1
2018-05-03T09:03:30.089Z,69.1
2018-05-03T09:04:20.125Z,69.1
2018-05-03T09:05:10.178Z,69.1
2018-05-03T09:06:00.252Z,69.1
2018-05-03T09:06:50.329Z,69.3
2018-05-03T09:07:40.620Z,69.4
2018-05-03T09:08:30.465Z,69.5
2018-05-03T09:09:20.519Z,69.6
2018-05-03T09:10:10.313Z,69.7
2018-05-03T09:11:00.648Z,69.8
2018-05-03T09:11:50.749Z,69.9
2018-05-03T09:12:40.790Z,70
2018-05-03T09:13:30.856Z,70.1
2018-05-03T09:14:20.635Z,70.3
2018-05-03T09:15:10.722Z,70.3
2018-05-03T09:16:01.065Z,70.4
2018-05-03T09:16:50.844Z,70.4
2018-05-03T09:17:41.194Z,70.6
2018-05-03T09:18:31.247Z,70.7
2018-05-03T09:19:21.043Z,70.8
2018-05-03T09:20:11.388Z,70.8
2018-05-03T09:21:01.170Z,70.9
2018-05-03T09:21:51.240Z,70.9
2018-05-03T09:22:41.289Z,71.1
2018-05-03T09:23:31.657Z,71.1
2018-05-03T09:24:21.714Z,71.2
2018-05-03T09:25:11.801Z,71.3
2018-05-03T09:26:01.857Z,71.4
2018-05-03T09:26:51.718Z,71.4
2018-05-03T09:27:41.974Z,71.4
2018-05-03T09:28:32.062Z,71.6
2018-05-03T09:29:21.843Z,71.6
2018-05-03T09:30:11.908Z,71.7
2018-05-03T09:31:02.265Z,71.7
2018-05-03T09:31:52.354Z,71.8
2018-05-03T09:32:42.107Z,71.9
2018-05-03T09:33:32.466Z,71.9
2018-05-03T09:34:22.528Z,72.1
2018-05-03T09:35:12.296Z,72.1
2018-05-03T09:36:02.672Z,72.2
2018-05-03T09:36:52.738Z,72.3
2018-05-03T09:37:42.787Z,72.3
2018-05-03T09:38:32.839Z,72.4
2018-05-03T09:39:22.920Z,72.4
2018-05-03T09:40:13.043Z,72.5
2018-05-03T09:41:03.051Z,72.6
2018-05-03T09:41:53.100Z,72.7
2018-05-03T09:42:43.169Z,72.8
2018-05-03T09:43:33.252Z,72.8
2018-05-03T09:44:22.739Z,72.9
2018-05-03T09:45:13.370Z,73.1
2018-05-03T09:46:03.163Z,73.1
2018-05-03T09:46:53.536Z,73.2
2018-05-03T09:47:43.290Z,73.3
2018-05-03T09:48:33.643Z,73.4
2018-05-03T09:49:23.707Z,73.4
2018-05-03T09:50:13.490Z,73.5
2018-05-03T09:51:03.845Z,73.6
2018-05-03T09:51:53.651Z,73.6
2018-05-03T09:52:43.972Z,73.7
2018-05-03T09:53:33.765Z,73.8
2018-05-03T09:54:24.096Z,73.8
2018-05-03T09:55:13.604Z,73.8
2018-05-03T09:56:04.234Z,73.8
2018-05-03T09:56:53.740Z,73.8
2018-05-03T09:57:44.372Z,73.9
2018-05-03T09:58:34.469Z,73.9
2018-05-03T09:59:24.712Z,74
2018-05-03T10:00:14.579Z,74.1
2018-05-03T10:01:04.657Z,74.3
2018-05-03T10:01:54.131Z,74.3
2018-05-03T10:02:44.785Z,74.4
2018-05-03T10:03:34.567Z,74.5
2018-05-03T10:04:24.613Z,74.6
2018-05-03T10:05:14.977Z,74.7
2018-05-03T10:06:05.031Z,74.8
2018-05-03T10:06:55.092Z,74.9
2018-05-03T10:07:45.174Z,75
2018-05-03T10:08:35.242Z,75.1
2018-05-03T10:09:25.297Z,75.1
2018-05-03T10:10:15.354Z,75.3
2018-05-03T10:11:05.431Z,75.3
2018-05-03T10:11:55.508Z,75.3
2018-05-03T10:12:45.579Z,75.2
2018-05-03T10:13:35.641Z,74.9
2018-05-03T10:14:25.721Z,74.6
2018-05-03T10:15:15.477Z,74.4
2018-05-03T10:16:05.564Z,74.2
2018-05-03T10:16:55.609Z,74.1
2018-05-03T10:17:45.978Z,74.1
2018-05-03T10:18:36.054Z,74.1
2018-05-03T10:19:26.126Z,74.3
2018-05-03T10:20:15.879Z,74.4
2018-05-03T10:21:05.939Z,74.5
2018-05-03T10:21:56.281Z,74.4
2018-05-03T10:22:46.086Z,74.3
2018-05-03T10:23:35.862Z,73.9
2018-05-03T10:24:26.215Z,73.8
2018-05-03T10:25:16.548Z,73.6
2018-05-03T10:26:06.356Z,73.5
2018-05-03T10:26:56.402Z,73.4
2018-05-03T10:27:46.756Z,73.4
2018-05-03T10:28:36.811Z,73.3
2018-05-03T10:29:26.962Z,73.3
2018-05-03T10:30:17.205Z,73.4
2018-05-03T10:31:07.007Z,73.5
2018-05-03T10:31:57.072Z,73.6
2018-05-03T10:32:47.167Z,73.5
2018-05-03T10:33:37.212Z,73.4
2018-05-03T10:34:27.293Z,73.4
2018-05-03T10:35:17.095Z,73.6
2018-05-03T10:36:07.828Z,73.8
2018-05-03T10:36:57.489Z,73.9
2018-05-03T10:37:47.566Z,73.9
2018-05-03T10:38:37.606Z,73.9
2018-05-03T10:39:27.382Z,74
2018-05-03T10:40:17.461Z,74.1
2018-05-03T10:41:07.809Z,74.3
2018-05-03T10:41:58.153Z,74.3
2018-05-03T10:42:47.938Z,74.4
2018-05-03T10:43:37.722Z,74.5
2018-05-03T10:44:27.797Z,74.5
2018-05-03T10:45:18.139Z,74.4
2018-05-03T10:46:08.203Z,74.4
2018-05-03T10:46:58.000Z,74.3
2018-05-03T10:47:48.329Z,74.3
2018-05-03T10:48:38.636Z,74.3
2018-05-03T10:49:28.475Z,74.2
2018-05-03T10:50:18.254Z,74.3
2018-05-03T10:51:08.059Z,74.3
2018-05-03T10:51:58.661Z,74.4
2018-05-03T10:52:48.727Z,74.6
2018-05-03T10:53:38.801Z,74.6
2018-05-03T10:54:28.868Z,74.6
2018-05-03T10:55:18.950Z,74.6
2018-05-03T10:56:08.996Z,74.4
2018-05-03T10:56:59.143Z,74.3
2018-05-03T10:57:49.121Z,74.1
2018-05-03T10:58:39.204Z,73.9
2018-05-03T10:59:29.324Z,73.7
2018-05-03T11:00:19.334Z,73.5
2018-05-03T11:01:09.209Z,73.4
2018-05-03T11:01:59.457Z,73.4
2018-05-03T11:02:49.522Z,73.3
2018-05-03T11:03:39.593Z,73.2
2018-05-03T11:04:29.651Z,73.1
2018-05-03T11:05:19.976Z,72.9
2018-05-03T11:06:09.540Z,72.7
2018-05-03T11:06:59.857Z,72.6
2018-05-03T11:07:49.656Z,72.4
2018-05-03T11:08:39.714Z,72.3
2018-05-03T11:09:29.199Z,72.2
2018-05-03T11:10:20.114Z,72.1
2018-05-03T11:11:10.448Z,71.9
2018-05-03T11:12:00.269Z,71.8
2018-05-03T11:12:50.356Z,71.7
2018-05-03T11:13:40.373Z,71.6
2018-05-03T11:14:30.442Z,71.5
2018-05-03T11:15:20.515Z,71.4
2018-05-03T11:16:10.570Z,71.4
2018-05-03T11:17:00.645Z,71.3
2018-05-03T11:17:50.725Z,71.1
2018-05-03T11:18:40.780Z,70.9